Time;durP1;ratioP1;P1;durP2;ratioP2;P2;SDS_P1;SDS_P2;PMS_P1;PMS_P2;Temp;Humidity;BMP_temperature;BMP_pressure;BME280_temperature;BME280_humidity;BME280_pressure;Samples;Min_cycle;Max_cycle;Signal;HPM_P1;HPM_P2
2023/08/17 00:00:36;;;;;;;6.10;2.30;;;;;;;24.77;72.86;100012.53;6174044;23;20021;-86
2023/08/17 00:03:03;;;;;;;5.07;2.15;;;;;;;24.74;72.96;100016.53;6149861;23;20044;-86
2023/08/17 00:05:32;;;;;;;3.55;2.05;;;;;;;24.73;72.99;100009.47;6124959;23;20073;-86
2023/08/17 00:08:01;;;;;;;2.28;2.10;;;;;;;24.73;73.27;100014.03;6124989;23;20033;-85
2023/08/17 00:10:28;;;;;;;3.08;2.00;;;;;;;24.69;73.15;100022.63;6149493;23;20445;-86
2023/08/17 00:12:55;;;;;;;4.80;2.28;;;;;;;24.59;73.59;100018.78;6149783;23;20518;-86
2023/08/17 00:15:22;;;;;;;4.75;2.05;;;;;;;24.63;73.15;100030.88;6125127;23;20101;-86
2023/08/17 00:17:48;;;;;;;3.20;2.00;;;;;;;24.59;73.31;100024.19;6149786;23;20024;-86
2023/08/17 00:20:16;;;;;;;5.05;2.20;;;;;;;24.55;73.11;100029.25;6176155;23;20025;-86
2023/08/17 00:22:42;;;;;;;4.78;2.00;;;;;;;24.52;72.98;100035.13;6174480;23;20025;-86
2023/08/17 00:25:09;;;;;;;3.92;2.53;;;;;;;24.52;73.06;100045.97;6148835;23;20092;-86
2023/08/17 00:27:36;;;;;;;4.43;2.30;;;;;;;24.53;71.99;100044.94;6149385;23;20044;-86
2023/08/17 00:30:03;;;;;;;4.13;2.25;;;;;;;24.52;72.04;100048.69;6174303;23;20449;-86
2023/08/17 00:32:30;;;;;;;5.82;2.25;;;;;;;24.52;71.39;100054.13;6149621;23;20025;-86
2023/08/17 00:34:57;;;;;;;4.43;2.30;;;;;;;24.48;70.85;100048.31;6149233;23;20080;-86
2023/08/17 00:37:27;;;;;;;5.22;2.15;;;;;;;24.51;70.85;100047.03;6173519;23;20017;-86
2023/08/17 00:39:54;;;;;;;4.18;2.10;;;;;;;24.46;70.37;100036.84;6126530;23;20315;-87
2023/08/17 00:42:21;;;;;;;3.97;2.00;;;;;;;24.41;69.57;100036.63;6148793;23;20402;-87
2023/08/17 00:44:48;;;;;;;3.22;1.83;;;;;;;24.43;69.12;100034.53;6149385;23;20750;-85
2023/08/17 00:47:14;;;;;;;4.68;2.30;;;;;;;24.44;68.73;100029.94;6173772;23;20025;-86
2023/08/17 00:49:41;;;;;;;3.75;1.88;;;;;;;24.47;68.66;100035.81;6174465;23;20112;-86
2023/08/17 00:52:08;;;;;;;8.48;1.80;;;;;;;24.47;68.86;100030.38;6124707;23;20100;-86
2023/08/17 00:54:35;;;;;;;5.55;1.70;;;;;;;24.47;68.41;100024.94;6149356;23;20025;-87
2023/08/17 00:57:06;;;;;;;4.80;1.88;;;;;;;24.48;68.04;100020.34;6149604;23;20056;-86
2023/08/17 00:59:33;;;;;;;4.22;2.10;;;;;;;24.49;67.98;100027.41;6173762;23;20060;-86
2023/08/17 01:02:03;;;;;;;7.05;2.53;;;;;;;24.46;68.02;100020.56;6150562;23;20025;-86
2023/08/17 01:04:31;;;;;;;7.05;1.65;;;;;;;24.50;68.12;100031.81;6125337;23;20029;-86
2023/08/17 01:06:58;;;;;;;8.93;2.13;;;;;;;24.29;67.34;100019.41;6125516;23;20509;-86
2023/08/17 01:09:26;;;;;;;6.38;1.88;;;;;;;24.28;67.32;100020.47;6125032;23;20025;-86
2023/08/17 01:12:00;;;;;;;3.65;2.00;;;;;;;24.24;67.11;100019.25;6173919;23;20025;-86
2023/08/17 01:14:33;;;;;;;2.88;1.50;;;;;;;24.30;66.76;100023.81;6174321;23;20029;-85
2023/08/17 01:17:09;;;;;;;6.47;1.90;;;;;;;24.27;66.68;100018.78;6151920;23;20484;-86
2023/08/17 01:19:37;;;;;;;5.43;1.95;;;;;;;24.29;66.74;100016.69;6151201;23;20874;-86
2023/08/17 01:22:05;;;;;;;3.22;1.50;;;;;;;24.31;66.37;100022.75;6151506;23;20077;-86
2023/08/17 01:24:32;;;;;;;2.90;1.50;;;;;;;24.26;66.73;100022.56;6176753;23;20029;-86
2023/08/17 01:26:59;;;;;;;3.20;1.50;;;;;;;24.23;67.31;100009.44;6151694;23;20117;-86
2023/08/17 01:29:26;;;;;;;3.80;1.52;;;;;;;24.20;67.07;100004.47;6151312;23;20099;-87
2023/08/17 01:32:12;;;;;;;4.53;1.83;;;;;;;24.10;66.73;100010.38;6177155;23;20096;-86
2023/08/17 01:34:50;;;;;;;5.03;1.95;;;;;;;24.13;67.29;100006.41;6175472;23;20073;-86
2023/08/17 01:37:19;;;;;;;3.58;2.00;;;;;;;24.19;67.61;100008.22;6175412;23;20033;-86
2023/08/17 01:39:49;;;;;;;2.20;1.98;;;;;;;24.21;67.35;99997.97;6152104;23;20095;-86
2023/08/17 01:42:16;;;;;;;4.85;2.00;;;;;;;24.22;67.12;99996.91;6151196;23;20115;-86
2023/08/17 01:44:43;;;;;;;4.30;1.73;;;;;;;24.19;67.98;99998.19;6176423;23;20021;-86
2023/08/17 01:47:11;;;;;;;2.10;1.40;;;;;;;24.17;67.64;99992.19;6175381;23;20069;-86
2023/08/17 01:49:38;;;;;;;3.47;1.90;;;;;;;24.13;67.58;99993.66;6152155;23;20341;-86
2023/08/17 01:52:05;;;;;;;2.75;1.50;;;;;;;24.09;67.58;99994.31;6151025;23;20438;-86
2023/08/17 01:54:31;;;;;;;4.30;1.85;;;;;;;24.07;68.16;99994.56;6176184;23;20024;-86
2023/08/17 01:56:58;;;;;;;3.50;1.75;;;;;;;24.01;67.83;99990.00;6176386;23;20350;-86
2023/08/17 01:59:25;;;;;;;3.95;1.90;;;;;;;24.02;67.99;99989.78;6175481;23;20049;-86
2023/08/17 02:01:53;;;;;;;3.88;1.77;;;;;;;24.04;68.27;99986.84;6126928;23;20040;-86
2023/08/17 02:04:20;;;;;;;2.97;1.65;;;;;;;24.03;68.16;99982.47;6151178;23;20024;-87
2023/08/17 02:06:47;;;;;;;2.08;1.80;;;;;;;23.96;68.51;99977.09;6126622;23;20023;-87
2023/08/17 02:09:14;;;;;;;2.47;1.65;;;;;;;23.98;68.43;99977.69;6150954;23;20056;-86
2023/08/17 02:11:41;;;;;;;6.22;1.70;;;;;;;24.04;68.78;99986.84;6151930;23;20021;-86
2023/08/17 02:14:07;;;;;;;3.60;1.83;;;;;;;23.94;69.43;99971.06;6150439;23;20025;-86
2023/08/17 02:16:34;;;;;;;2.45;1.67;;;;;;;23.96;69.89;99982.50;6126718;23;20021;-86
2023/08/17 02:19:01;;;;;;;4.50;2.08;;;;;;;23.91;69.86;99976.09;6151192;23;20446;-87
2023/08/17 02:21:28;;;;;;;5.93;2.17;;;;;;;23.93;69.57;99971.28;6126254;23;20028;-86
2023/08/17 02:23:55;;;;;;;4.03;2.13;;;;;;;23.90;69.62;99969.84;6150817;23;20043;-86
2023/08/17 02:26:23;;;;;;;2.83;1.65;;;;;;;23.94;69.60;99978.34;6102507;23;20021;-86
2023/08/17 02:28:49;;;;;;;6.75;1.80;;;;;;;23.94;70.23;99972.94;6175826;23;20092;-86
2023/08/17 02:31:16;;;;;;;3.25;1.63;;;;;;;23.90;70.42;99969.00;6175446;23;20076;-85
2023/08/17 02:33:43;;;;;;;2.78;2.08;;;;;;;23.85;70.48;99958.81;6126323;23;20072;-86
2023/08/17 02:36:10;;;;;;;2.92;1.77;;;;;;;23.90;70.23;99966.31;6175388;23;20446;-86
2023/08/17 02:38:37;;;;;;;3.10;1.88;;;;;;;23.88;70.21;99962.97;6152009;23;20035;-86
2023/08/17 02:41:03;;;;;;;2.20;2.00;;;;;;;23.83;70.16;99960.91;6175946;23;20045;-86
2023/08/17 02:43:30;;;;;;;4.25;1.90;;;;;;;23.83;70.25;99960.91;6150031;23;20033;-86
2023/08/17 02:45:59;;;;;;;2.03;1.88;;;;;;;23.85;70.40;99960.69;6150870;23;20027;-86
2023/08/17 02:48:26;;;;;;;3.78;2.20;;;;;;;23.83;70.72;99963.63;6125945;23;20031;-86
2023/08/17 02:50:53;;;;;;;4.28;2.80;;;;;;;23.83;70.48;99961.72;6150943;23;20031;-86
2023/08/17 02:53:19;;;;;;;4.97;2.30;;;;;;;23.80;70.93;99958.66;6151047;23;20095;-87
2023/08/17 02:55:46;;;;;;;6.43;3.35;;;;;;;23.72;71.64;99964.31;6175771;23;20033;-88
2023/08/17 02:58:13;;;;;;;4.50;3.25;;;;;;;23.56;72.43;99963.78;6126155;23;20036;-88
2023/08/17 03:00:40;;;;;;;4.20;3.80;;;;;;;23.61;72.16;99958.53;6175849;23;20095;-86
2023/08/17 03:03:07;;;;;;;3.38;3.05;;;;;;;23.59;72.50;99955.19;6101008;23;20047;-87
2023/08/17 03:05:34;;;;;;;3.75;2.58;;;;;;;23.65;72.62;99958.91;6126757;23;20017;-87
2023/08/17 03:08:01;;;;;;;4.85;3.50;;;;;;;23.65;72.70;99948.06;6151001;23;20405;-87
2023/08/17 03:10:27;;;;;;;5.45;3.05;;;;;;;23.66;72.64;99949.75;6150376;23;20029;-87
2023/08/17 03:12:54;;;;;;;7.63;2.65;;;;;;;23.63;73.15;99947.44;6176656;23;20295;-87
2023/08/17 03:15:21;;;;;;;4.97;2.85;;;;;;;23.67;72.80;99953.28;6125505;23;20025;-88
2023/08/17 03:17:48;;;;;;;5.85;2.55;;;;;;;23.67;72.98;99961.41;6149756;23;20017;-89
2023/08/17 03:20:15;;;;;;;3.45;2.45;;;;;;;23.67;73.15;99961.41;6125444;23;20075;-89
2023/08/17 03:22:42;;;;;;;3.88;2.50;;;;;;;23.64;73.36;99953.72;6149938;23;20519;-94
2023/08/17 03:25:09;;;;;;;3.10;2.50;;;;;;;23.58;73.34;99953.56;6099957;23;20095;-94
2023/08/17 03:27:37;;;;;;;3.25;2.40;;;;;;;23.55;73.31;99953.13;6101175;23;20025;-93
2023/08/17 03:30:05;;;;;;;5.60;3.00;;;;;;;23.55;73.27;99951.25;6151228;23;20017;-94
2023/08/17 03:32:32;;;;;;;4.80;2.10;;;;;;;23.49;73.58;99944.00;6125561;23;20025;-96
2023/08/17 03:34:59;;;;;;;3.15;2.25;;;;;;;23.45;73.20;99950.91;6113919;23;20333;-94
2023/08/17 03:37:26;;;;;;;4.88;2.40;;;;;;;23.44;73.47;99945.72;6150383;23;20092;-94
2023/08/17 03:39:54;;;;;;;3.88;2.33;;;;;;;23.40;73.53;99942.59;6126010;23;20040;-88
2023/08/17 03:42:21;;;;;;;6.13;2.72;;;;;;;23.43;73.36;99939.44;6125566;23;20080;-88
2023/08/17 03:44:48;;;;;;;4.82;2.33;;;;;;;23.38;73.15;99945.53;6150132;23;20021;-87
2023/08/17 03:47:14;;;;;;;8.40;2.80;;;;;;;23.37;73.36;99941.16;6174161;23;20029;-88
2023/08/17 03:49:41;;;;;;;3.17;2.58;;;;;;;23.38;73.32;99950.09;6149442;23;20351;-87
2023/08/17 03:52:08;;;;;;;5.32;2.95;;;;;;;23.33;73.85;99955.34;6174859;23;20025;-88
2023/08/17 03:54:35;;;;;;;4.57;3.10;;;;;;;23.35;73.96;99966.78;6149850;23;20032;-88
2023/08/17 03:57:02;;;;;;;5.93;3.03;;;;;;;23.30;74.00;99967.44;6125030;23;20044;-90
2023/08/17 03:59:29;;;;;;;4.07;2.55;;;;;;;23.27;74.05;99962.47;6125775;23;20024;-90
2023/08/17 04:01:56;;;;;;;4.05;3.00;;;;;;;23.25;74.22;99961.00;6125484;23;20037;-91
2023/08/17 04:04:23;;;;;;;4.05;2.80;;;;;;;23.23;73.87;99957.69;6149338;23;20344;-87
2023/08/17 04:06:50;;;;;;;3.95;2.58;;;;;;;23.22;74.12;99967.69;6122926;23;20099;-87
2023/08/17 04:09:17;;;;;;;4.70;2.60;;;;;;;23.19;73.91;99965.41;6170928;23;20076;-87
2023/08/17 04:11:44;;;;;;;4.20;2.72;;;;;;;23.18;74.36;99972.72;6123308;23;20024;-89
2023/08/17 04:14:12;;;;;;;4.32;2.25;;;;;;;23.19;74.13;99968.94;6125136;23;20029;-87
2023/08/17 04:16:39;;;;;;;3.95;2.60;;;;;;;23.13;74.04;99979.84;6147989;23;20083;-86
2023/08/17 04:19:07;;;;;;;7.05;2.97;;;;;;;23.16;74.18;99980.22;6147840;23;20031;-86
2023/08/17 04:21:35;;;;;;;8.32;3.05;;;;;;;23.10;74.01;99972.09;6101179;23;20017;-89
2023/08/17 04:24:03;;;;;;;5.40;3.60;;;;;;;23.11;74.37;99985.44;6109923;23;20036;-90
2023/08/17 04:26:29;;;;;;;3.90;2.92;;;;;;;23.11;74.37;99982.75;6123287;23;20028;-90
2023/08/17 04:28:56;;;;;;;3.88;3.30;;;;;;;23.10;74.22;99978.38;6124503;23;20036;-91
2023/08/17 04:31:23;;;;;;;4.47;3.60;;;;;;;23.07;74.53;99988.78;6147877;23;20028;-89
2023/08/17 04:33:57;;;;;;;3.55;3.00;;;;;;;23.07;74.16;99983.38;6101967;23;20032;-85
2023/08/17 04:36:25;;;;;;;5.07;3.47;;;;;;;23.06;74.48;99993.38;6095345;23;20029;-85
2023/08/17 04:38:53;;;;;;;4.40;3.78;;;;;;;22.99;74.89;99981.75;6098215;23;20709;-85
2023/08/17 04:41:20;;;;;;;4.78;3.75;;;;;;;23.06;74.47;99987.97;6121043;23;24866;-85
2023/08/17 04:43:49;;;;;;;4.22;3.75;;;;;;;23.04;74.62;99992.75;6097770;23;20100;-85
2023/08/17 04:46:16;;;;;;;4.22;3.65;;;;;;;23.02;74.65;99989.44;6147634;23;20092;-85
2023/08/17 04:48:43;;;;;;;7.32;4.78;;;;;;;23.04;74.81;99992.75;6146552;23;20075;-85
2023/08/17 04:51:11;;;;;;;9.40;5.05;;;;;;;23.03;74.96;99993.00;6148711;23;20092;-85
2023/08/17 04:53:40;;;;;;;6.22;4.38;;;;;;;23.06;74.55;100001.50;6123562;23;20025;-85
2023/08/17 04:56:07;;;;;;;8.77;5.32;;;;;;;23.00;74.83;99991.53;6125134;23;20017;-85
2023/08/17 04:58:34;;;;;;;5.60;4.45;;;;;;;22.98;75.26;99998.22;6149391;23;20029;-85
2023/08/17 05:01:01;;;;;;;7.88;4.95;;;;;;;22.99;75.08;100000.69;6124935;23;20021;-85
2023/08/17 05:03:28;;;;;;;8.40;4.88;;;;;;;22.99;75.70;100003.41;6124400;23;20029;-85
2023/08/17 05:06:00;;;;;;;;;;;;;;;22.72;77.04;99999.91;6103682;23;20025;-85
2023/08/17 05:08:27;;;;;;;8.55;4.90;;;;;;;23.00;75.40;100004.22;6100784;23;20300;-85
2023/08/17 05:10:55;;;;;;;7.88;4.55;;;;;;;23.01;75.39;100001.31;6102402;23;20546;-85
2023/08/17 05:13:24;;;;;;;7.53;4.82;;;;;;;22.99;75.74;100005.28;6149486;23;20120;-85
2023/08/17 05:15:52;;;;;;;8.02;4.53;;;;;;;23.02;75.52;99996.72;6099791;23;20079;-85
2023/08/17 05:18:19;;;;;;;10.23;5.00;;;;;;;23.04;75.80;100000.06;6099460;23;20024;-85
2023/08/17 05:20:46;;;;;;;10.15;5.05;;;;;;;23.12;75.04;100008.78;6149448;23;20334;-85
2023/08/17 05:23:13;;;;;;;8.20;4.95;;;;;;;23.12;75.43;99997.94;6123579;23;20020;-86
2023/08/17 05:25:41;;;;;;;8.02;4.93;;;;;;;23.13;75.33;100001.50;6098970;23;20037;-85
2023/08/17 05:28:07;;;;;;;8.10;5.70;;;;;;;23.13;75.38;99996.91;6173745;23;20023;-85
2023/08/17 05:30:34;;;;;;;6.63;5.45;;;;;;;23.15;75.54;100005.66;6100082;23;20048;-85
2023/08/17 05:33:01;;;;;;;6.80;5.00;;;;;;;23.19;75.76;100000.63;6123855;23;20068;-85
2023/08/17 05:35:28;;;;;;;7.13;5.20;;;;;;;23.23;75.50;100007.31;6123644;23;20028;-85
2023/08/17 05:37:55;;;;;;;11.40;6.18;;;;;;;23.24;75.59;100010.84;6123503;23;20434;-85
2023/08/17 05:40:22;;;;;;;8.85;6.00;;;;;;;23.24;75.91;100005.41;6098808;23;20036;-85
2023/08/17 05:42:49;;;;;;;9.07;5.60;;;;;;;23.29;75.80;100013.72;6149037;23;20753;-85
2023/08/17 05:45:16;;;;;;;8.90;5.55;;;;;;;23.27;76.13;100004.97;6124225;23;20409;-85
2023/08/17 05:47:45;;;;;;;6.32;5.00;;;;;;;23.24;75.46;100011.66;6125746;23;20091;-85
2023/08/17 05:50:12;;;;;;;7.47;5.68;;;;;;;23.24;75.17;100003.53;6123052;23;20439;-85
2023/08/17 05:52:41;;;;;;;6.32;5.47;;;;;;;23.29;75.46;100013.72;6123113;23;20017;-85
2023/08/17 05:55:08;;;;;;;7.10;4.68;;;;;;;23.28;75.17;100007.50;6124020;23;20059;-85
2023/08/17 05:57:35;;;;;;;6.90;4.43;;;;;;;23.33;75.69;100014.94;6123186;23;20043;-85
2023/08/17 06:00:02;;;;;;;6.10;4.25;;;;;;;23.30;76.05;100018.09;6123942;23;20136;-85
2023/08/17 06:02:39;;;;;;;7.65;4.00;;;;;;;23.35;75.73;100002.84;6149911;23;20028;-85
2023/08/17 06:05:07;;;;;;;6.03;3.20;;;;;;;23.45;75.61;100013.22;6123341;23;20088;-85
2023/08/17 06:07:34;;;;;;;5.10;2.63;;;;;;;23.45;74.26;100015.13;6148681;23;20088;-86
2023/08/17 06:10:04;;;;;;;7.20;2.33;;;;;;;23.44;73.33;100010.75;6148704;23;20029;-85
2023/08/17 06:12:30;;;;;;;4.80;2.30;;;;;;;23.48;73.50;100015.50;6122962;23;20457;-85
2023/08/17 06:14:57;;;;;;;5.18;2.80;;;;;;;23.46;73.14;100011.34;6148968;23;20032;-85
2023/08/17 06:17:24;;;;;;;2.85;2.38;;;;;;;23.50;73.39;100018.00;6123721;23;20033;-85
2023/08/17 06:19:51;;;;;;;3.10;2.67;;;;;;;23.47;73.13;100016.56;6123652;23;20024;-85
2023/08/17 06:22:18;;;;;;;3.58;2.45;;;;;;;23.50;72.90;100015.31;6122327;23;20163;-85
2023/08/17 06:24:45;;;;;;;5.20;2.35;;;;;;;23.57;73.39;100016.09;6122632;23;20024;-85
2023/08/17 06:27:15;;;;;;;6.88;2.90;;;;;;;23.50;73.11;100012.59;6147879;23;20393;-85
2023/08/17 06:29:42;;;;;;;4.32;2.90;;;;;;;23.55;72.74;100012.78;6123107;23;20095;-85
2023/08/17 06:32:09;;;;;;;9.15;2.95;;;;;;;23.52;73.30;100010.50;6148043;23;20025;-85
2023/08/17 06:34:35;;;;;;;4.53;3.00;;;;;;;23.59;73.32;100017.56;6147652;23;20025;-85
2023/08/17 06:37:04;;;;;;;2.92;2.63;;;;;;;23.58;72.82;100007.78;6123893;23;20039;-85
2023/08/17 06:39:30;;;;;;;3.13;2.83;;;;;;;23.60;72.83;100011.06;6172210;23;20441;-85
2023/08/17 06:41:57;;;;;;;4.93;2.88;;;;;;;23.58;73.13;100002.34;6171244;23;20029;-85
2023/08/17 06:44:24;;;;;;;7.00;2.70;;;;;;;23.61;73.30;100001.91;6122233;23;20107;-85
2023/08/17 06:46:51;;;;;;;2.80;2.53;;;;;;;23.68;73.30;100004.56;6173059;23;20104;-85
2023/08/17 06:49:18;;;;;;;3.75;2.70;;;;;;;23.60;73.16;99999.41;6097480;23;20017;-85
2023/08/17 06:51:44;;;;;;;5.72;2.95;;;;;;;23.66;73.61;100000.41;6124515;23;20028;-85
2023/08/17 06:54:11;;;;;;;5.30;2.75;;;;;;;23.65;73.67;100002.28;6147625;23;20413;-85
2023/08/17 06:56:38;;;;;;;4.00;3.03;;;;;;;23.71;72.74;100006.88;6172394;23;20040;-85
2023/08/17 06:59:05;;;;;;;4.93;3.00;;;;;;;23.75;73.03;100012.69;6172596;23;20039;-85
2023/08/17 07:01:32;;;;;;;3.15;2.85;;;;;;;23.66;73.23;100013.97;6147150;23;20021;-85
2023/08/17 07:03:59;;;;;;;3.88;2.47;;;;;;;23.68;73.47;100011.88;6174061;23;20021;-85
2023/08/17 07:06:25;;;;;;;4.40;2.75;;;;;;;23.71;73.08;100016.84;6123393;23;20342;-85
2023/08/17 07:08:52;;;;;;;5.93;2.67;;;;;;;23.73;73.69;100018.31;6121895;23;20041;-85
2023/08/17 07:11:19;;;;;;;4.43;3.38;;;;;;;23.72;74.15;100016.69;6123249;23;20025;-85
2023/08/17 07:13:46;;;;;;;3.47;3.08;;;;;;;23.73;73.81;100009.38;6147226;23;20107;-85
2023/08/17 07:16:13;;;;;;;5.53;2.85;;;;;;;23.75;73.37;100020.84;6145688;23;20021;-85
2023/08/17 07:18:40;;;;;;;3.70;2.80;;;;;;;23.74;73.89;100022.72;6171485;23;20088;-85
2023/08/17 07:21:07;;;;;;;5.45;3.47;;;;;;;23.75;73.23;100027.09;6123427;23;20047;-85
2023/08/17 07:23:34;;;;;;;5.00;2.70;;;;;;;23.81;73.53;100028.94;6097977;23;20028;-85
2023/08/17 07:26:01;;;;;;;6.30;3.10;;;;;;;23.81;73.40;100025.38;6172106;23;20048;-85
2023/08/17 07:28:28;;;;;;;3.30;2.83;;;;;;;23.85;73.62;100028.50;6122173;23;20041;-85
2023/08/17 07:30:55;;;;;;;5.40;2.78;;;;;;;23.82;73.94;100016.22;6146990;23;20117;-85
2023/08/17 07:33:21;;;;;;;4.88;3.00;;;;;;;23.88;74.03;100026.16;6147605;23;20028;-85
2023/08/17 07:35:48;;;;;;;5.15;3.10;;;;;;;23.82;73.70;100016.22;6173412;23;20037;-85
2023/08/17 07:38:15;;;;;;;3.88;2.97;;;;;;;23.86;73.61;100020.13;6146827;23;20029;-85
2023/08/17 07:40:43;;;;;;;5.05;2.83;;;;;;;23.91;73.71;100020.31;6147887;23;20388;-85
2023/08/17 07:43:10;;;;;;;5.05;2.92;;;;;;;23.92;73.88;100013.84;6147898;23;20028;-85
2023/08/17 07:45:37;;;;;;;3.10;2.80;;;;;;;23.95;73.88;100021.53;6123662;23;20033;-85
2023/08/17 07:48:04;;;;;;;3.10;2.80;;;;;;;23.97;73.70;100015.91;6147678;23;20027;-85
2023/08/17 07:50:31;;;;;;;4.38;3.05;;;;;;;23.99;73.84;100021.91;6171144;23;20029;-85
2023/08/17 07:52:57;;;;;;;4.63;2.92;;;;;;;23.98;73.91;100009.41;6171985;23;20508;-85
2023/08/17 07:55:26;;;;;;;4.45;2.83;;;;;;;24.02;74.32;100010.66;6147349;23;20021;-85
2023/08/17 07:57:53;;;;;;;3.03;2.58;;;;;;;24.06;74.84;100006.44;6099017;23;20074;-85
2023/08/17 08:00:19;;;;;;;4.72;3.17;;;;;;;24.09;74.92;100003.28;6122264;23;20044;-85
2023/08/17 08:02:46;;;;;;;5.05;2.72;;;;;;;24.13;74.89;99992.84;6123274;23;20025;-85
2023/08/17 08:05:14;;;;;;;4.13;2.92;;;;;;;24.18;74.58;99995.72;6147248;23;20017;-85
2023/08/17 08:07:41;;;;;;;3.83;3.42;;;;;;;24.21;74.71;99987.13;6148347;23;20055;-86
2023/08/17 08:10:08;;;;;;;3.97;2.90;;;;;;;24.25;74.30;99993.78;6098435;23;20080;-85
2023/08/17 08:12:35;;;;;;;6.93;2.90;;;;;;;24.26;74.48;99990.84;6123362;23;20056;-85
2023/08/17 08:15:02;;;;;;;4.18;2.70;;;;;;;24.28;74.46;99990.63;6123336;23;20029;-85
2023/08/17 08:17:29;;;;;;;5.68;2.80;;;;;;;24.29;74.72;99986.84;6147171;23;20025;-85
2023/08/17 08:19:58;;;;;;;3.45;2.80;;;;;;;24.32;74.46;99991.81;6123338;23;20055;-85
2023/08/17 08:22:25;;;;;;;3.35;3.05;;;;;;;24.36;74.78;99987.63;6172823;23;20032;-87
2023/08/17 08:24:52;;;;;;;2.90;2.60;;;;;;;24.40;74.97;99988.84;6124076;23;20021;-86
2023/08/17 08:27:18;;;;;;;3.67;3.10;;;;;;;24.39;75.55;99987.16;6148627;23;20318;-86
2023/08/17 08:29:45;;;;;;;10.40;4.57;;;;;;;24.43;75.76;99993.00;6123976;23;20114;-85
2023/08/17 08:32:12;;;;;;;3.67;3.03;;;;;;;24.47;75.10;99994.22;6172370;23;20020;-85
2023/08/17 08:34:39;;;;;;;5.72;3.40;;;;;;;24.40;75.19;99988.00;6148834;23;20721;-86
2023/08/17 08:37:06;;;;;;;4.07;3.03;;;;;;;24.39;75.23;99983.63;6148207;23;20055;-85
2023/08/17 08:39:32;;;;;;;8.13;3.70;;;;;;;24.42;75.10;99980.47;6146855;23;20639;-86
2023/08/17 08:41:59;;;;;;;3.22;2.92;;;;;;;24.44;75.81;99990.03;6146776;23;20099;-86
2023/08/17 08:44:27;;;;;;;5.28;3.45;;;;;;;24.41;75.51;99979.63;6122764;23;20040;-85
2023/08/17 08:46:54;;;;;;;4.47;3.70;;;;;;;24.39;75.28;99979.03;6172766;23;20469;-85
2023/08/17 08:49:23;;;;;;;4.25;3.70;;;;;;;24.43;75.30;99982.16;6122836;23;20618;-86
2023/08/17 08:51:52;;;;;;;5.07;3.67;;;;;;;24.41;75.78;99987.78;6171500;23;20541;-86
2023/08/17 08:54:24;;;;;;;4.28;3.63;;;;;;;24.40;75.92;99986.13;6146922;23;20029;-86
2023/08/17 08:56:55;;;;;;;4.97;3.65;;;;;;;24.41;76.61;99986.97;6148124;23;20412;-86
2023/08/17 08:59:23;;;;;;;4.45;3.40;;;;;;;24.41;75.96;99981.53;6122430;23;20842;-85
2023/08/17 09:01:50;;;;;;;4.00;3.38;;;;;;;24.49;75.76;99986.69;6172771;23;20020;-86
2023/08/17 09:04:17;;;;;;;5.03;3.33;;;;;;;24.54;75.92;99986.03;6121607;23;20047;-85
2023/08/17 09:06:44;;;;;;;5.60;3.22;;;;;;;24.55;75.54;99976.81;6122437;23;20433;-85
2023/08/17 09:09:11;;;;;;;3.75;3.17;;;;;;;24.58;75.88;99985.38;6146806;23;20084;-86
2023/08/17 09:11:38;;;;;;;4.30;3.10;;;;;;;24.61;75.73;99982.19;6122533;23;20033;-86
2023/08/17 09:14:10;;;;;;;4.45;3.42;;;;;;;24.64;75.99;99984.47;6171712;23;20021;-85
2023/08/17 09:16:37;;;;;;;7.10;3.58;;;;;;;24.68;75.64;99982.97;6171960;23;20017;-85
2023/08/17 09:19:04;;;;;;;6.72;3.90;;;;;;;24.73;75.50;99976.00;6123041;23;20025;-85
2023/08/17 09:21:32;;;;;;;4.38;3.70;;;;;;;24.80;76.26;99984.94;6146127;23;20020;-85
2023/08/17 09:23:59;;;;;;;4.10;3.70;;;;;;;24.80;76.11;99977.59;6146413;23;20100;-85
2023/08/17 09:26:32;;;;;;;14.88;4.72;;;;;;;24.83;75.69;99982.63;6148342;23;20043;-86
2023/08/17 09:29:00;;;;;;;3.92;3.53;;;;;;;24.90;75.46;99977.09;6171572;23;20025;-86
2023/08/17 09:31:30;;;;;;;4.40;4.00;;;;;;;24.88;75.28;99979.19;6123209;23;20040;-86
2023/08/17 09:33:57;;;;;;;6.22;4.20;;;;;;;24.91;75.68;99978.75;6146782;23;20421;-86
2023/08/17 09:36:25;;;;;;;5.38;4.03;;;;;;;24.96;75.04;99975.34;6124305;23;20036;-85
2023/08/17 09:38:52;;;;;;;5.82;3.92;;;;;;;24.97;75.22;99977.03;6149040;23;20029;-84
2023/08/17 09:41:19;;;;;;;5.47;3.63;;;;;;;24.98;75.18;99965.09;6124731;23;20052;-88
2023/08/17 09:43:46;;;;;;;6.53;3.60;;;;;;;24.96;75.95;99959.03;6124844;23;20800;-86
2023/08/17 09:46:14;;;;;;;5.43;4.63;;;;;;;25.01;76.44;99951.03;6100266;23;20044;-86
2023/08/17 09:48:44;;;;;;;4.00;3.25;;;;;;;25.02;76.69;99956.25;6125863;23;20037;-86
2023/08/17 09:51:15;;;;;;;4.95;4.00;;;;;;;25.04;76.41;99946.00;6149258;23;20045;-86
2023/08/17 09:53:42;;;;;;;7.63;4.32;;;;;;;25.04;76.49;99945.19;6149881;23;20029;-85
2023/08/17 09:56:10;;;;;;;4.13;3.72;;;;;;;25.07;76.23;99947.44;6149607;23;20017;-86
2023/08/17 09:58:43;;;;;;;4.63;3.92;;;;;;;25.07;76.11;99940.09;6128125;23;20326;-85
2023/08/17 10:01:12;;;;;;;4.10;3.67;;;;;;;25.10;76.44;99938.81;6124263;23;20496;-86
2023/08/17 10:03:42;;;;;;;4.60;4.03;;;;;;;25.09;76.27;99939.88;6174486;23;20021;-85
2023/08/17 10:06:10;;;;;;;5.80;4.03;;;;;;;25.09;75.88;99931.75;6150372;23;20032;-86
2023/08/17 10:08:43;;;;;;;6.20;4.30;;;;;;;25.11;76.10;99938.59;6124841;23;20013;-85
2023/08/17 10:11:15;;;;;;;4.63;3.65;;;;;;;25.15;76.60;99932.69;6125265;23;20404;-85
2023/08/17 10:14:02;;;;;;;4.15;3.67;;;;;;;25.08;76.77;99939.03;6125071;23;20021;-86
2023/08/17 10:16:35;;;;;;;5.95;3.92;;;;;;;25.21;76.46;99939.97;6148206;23;20079;-85
2023/08/17 10:19:19;;;;;;;6.32;3.97;;;;;;;25.21;76.82;99939.97;6149092;23;20029;-86
2023/08/17 10:22:12;;;;;;;5.07;4.10;;;;;;;25.21;76.44;99938.06;6174109;23;20025;-86
2023/08/17 10:24:45;;;;;;;5.80;4.00;;;;;;;25.27;76.82;99942.59;6173257;23;20021;-85
2023/08/17 10:27:16;;;;;;;5.45;4.50;;;;;;;25.34;76.63;99940.63;6126558;23;20021;-85
2023/08/17 10:29:44;;;;;;;8.07;4.60;;;;;;;25.33;77.55;99941.66;6149542;23;20017;-86
2023/08/17 10:32:12;;;;;;;6.32;4.50;;;;;;;25.34;77.27;99942.53;6124294;23;20021;-85
2023/08/17 10:34:43;;;;;;;5.90;4.15;;;;;;;25.36;77.59;99936.84;6173769;23;20338;-85
2023/08/17 10:37:10;;;;;;;5.30;4.00;;;;;;;25.39;78.17;99939.94;6149359;23;20064;-86
2023/08/17 10:39:45;;;;;;;4.97;4.05;;;;;;;25.39;76.27;99936.38;6150367;23;20025;-86
2023/08/17 10:42:12;;;;;;;5.07;4.57;;;;;;;25.45;77.34;99938.19;6148201;23;20040;-86
2023/08/17 10:44:44;;;;;;;4.38;3.65;;;;;;;25.50;77.14;99932.88;6149878;23;20319;-86
2023/08/17 10:47:27;;;;;;;7.03;3.97;;;;;;;25.46;76.87;99931.69;6148270;23;20401;-86
2023/08/17 10:50:19;;;;;;;7.30;3.95;;;;;;;25.47;76.06;99930.63;6148293;23;20013;-86
2023/08/17 10:52:48;;;;;;;7.10;4.32;;;;;;;25.55;76.05;99930.28;6147498;23;20335;-85
2023/08/17 10:55:14;;;;;;;4.22;3.83;;;;;;;25.54;75.59;99924.03;6173155;23;20028;-86
2023/08/17 10:57:43;;;;;;;8.25;4.72;;;;;;;25.54;74.83;99924.03;6124461;23;20019;-85
2023/08/17 11:00:16;;;;;;;9.75;4.63;;;;;;;25.58;73.56;99924.38;6124370;23;20075;-86
2023/08/17 11:02:55;;;;;;;5.28;4.20;;;;;;;25.60;73.85;99927.72;6124185;23;20079;-85
2023/08/17 11:05:42;;;;;;;4.88;3.80;;;;;;;25.59;73.62;99931.47;6172808;23;20067;-85
2023/08/17 11:08:21;;;;;;;5.82;4.25;;;;;;;25.70;73.22;99936.13;6149411;23;20028;-85
2023/08/17 11:11:13;;;;;;;5.20;4.70;;;;;;;25.72;73.49;99933.16;6125432;23;20461;-86
2023/08/17 11:13:44;;;;;;;6.47;3.83;;;;;;;25.78;73.77;99924.91;6148524;23;20055;-85
2023/08/17 11:16:19;;;;;;;7.63;4.30;;;;;;;25.77;73.97;99928.72;6149230;23;20095;-85
2023/08/17 11:18:47;;;;;;;5.28;4.47;;;;;;;25.82;74.00;99916.28;6101141;23;20052;-85
2023/08/17 11:21:16;;;;;;;4.82;4.32;;;;;;;25.83;74.66;99921.50;6149451;23;20088;-85
2023/08/17 11:23:46;;;;;;;5.47;4.15;;;;;;;25.90;74.52;99921.41;6100432;23;20025;-86
2023/08/17 11:26:17;;;;;;;4.88;4.00;;;;;;;25.90;75.09;99924.97;6124531;23;20035;-85
2023/08/17 11:28:44;;;;;;;5.75;4.30;;;;;;;25.91;75.17;99921.19;6124668;23;20812;-85
2023/08/17 11:31:15;;;;;;;4.05;3.65;;;;;;;25.92;75.12;99922.00;6123305;23;20025;-85
2023/08/17 11:33:42;;;;;;;5.20;4.70;;;;;;;25.89;74.62;99923.31;6124916;23;20029;-86